sensor_id;sensor_type;location;lat;lon;timestamp;P1;durP1;ratioP1;P2;durP2;ratioP2
5263;SDS011;2654;47.958;13.614;2022-08-21T00:01:21;4.50;;;4.03;;
5263;SDS011;2654;47.958;13.614;2022-08-21T00:03:51;3.87;;;3.50;;
5263;SDS011;2654;47.958;13.614;2022-08-21T00:06:19;3.50;;;3.20;;
5263;SDS011;2654;47.958;13.614;2022-08-21T00:08:50;3.63;;;3.33;;
5263;SDS011;2654;47.958;13.614;2022-08-21T00:11:17;4.37;;;3.17;;
5263;SDS011;2654;47.958;13.614;2022-08-21T00:13:45;3.53;;;3.23;;
5263;SDS011;2654;47.958;13.614;2022-08-21T00:16:13;5.03;;;4.00;;
5263;SDS011;2654;47.958;13.614;2022-08-21T00:18:40;3.83;;;3.53;;
5263;SDS011;2654;47.958;13.614;2022-08-21T00:21:08;3.23;;;2.63;;
5263;SDS011;2654;47.958;13.614;2022-08-21T00:23:37;4.10;;;3.73;;
5263;SDS011;2654;47.958;13.614;2022-08-21T00:26:07;3.67;;;3.23;;
5263;SDS011;2654;47.958;13.614;2022-08-21T00:28:34;4.80;;;3.70;;
5263;SDS011;2654;47.958;13.614;2022-08-21T00:31:02;5.10;;;4.10;;
5263;SDS011;2654;47.958;13.614;2022-08-21T00:33:30;4.10;;;3.27;;
5263;SDS011;2654;47.958;13.614;2022-08-21T00:36:00;4.07;;;3.67;;
5263;SDS011;2654;47.958;13.614;2022-08-21T00:38:27;3.73;;;3.33;;
5263;SDS011;2654;47.958;13.614;2022-08-21T00:40:56;3.80;;;3.27;;
5263;SDS011;2654;47.958;13.614;2022-08-21T00:43:28;5.57;;;3.20;;
5263;SDS011;2654;47.958;13.614;2022-08-21T00:45:59;6.47;;;3.00;;
5263;SDS011;2654;47.958;13.614;2022-08-21T00:48:27;4.40;;;3.30;;
5263;SDS011;2654;47.958;13.614;2022-08-21T00:50:55;3.50;;;3.10;;
5263;SDS011;2654;47.958;13.614;2022-08-21T00:53:26;5.90;;;3.40;;
5263;SDS011;2654;47.958;13.614;2022-08-21T00:55:55;4.40;;;3.13;;
5263;SDS011;2654;47.958;13.614;2022-08-21T00:58:23;3.53;;;3.00;;
5263;SDS011;2654;47.958;13.614;2022-08-21T01:00:54;3.30;;;3.00;;
5263;SDS011;2654;47.958;13.614;2022-08-21T01:03:22;3.87;;;3.30;;
5263;SDS011;2654;47.958;13.614;2022-08-21T01:05:51;3.50;;;3.20;;
5263;SDS011;2654;47.958;13.614;2022-08-21T01:08:19;3.70;;;3.40;;
5263;SDS011;2654;47.958;13.614;2022-08-21T01:10:48;3.43;;;3.13;;
5263;SDS011;2654;47.958;13.614;2022-08-21T01:13:17;4.27;;;3.40;;
5263;SDS011;2654;47.958;13.614;2022-08-21T01:15:46;4.97;;;2.70;;
5263;SDS011;2654;47.958;13.614;2022-08-21T01:18:17;3.53;;;3.23;;
5263;SDS011;2654;47.958;13.614;2022-08-21T01:20:55;3.50;;;3.20;;
5263;SDS011;2654;47.958;13.614;2022-08-21T01:23:27;5.77;;;4.23;;
5263;SDS011;2654;47.958;13.614;2022-08-21T01:25:55;6.30;;;4.70;;
5263;SDS011;2654;47.958;13.614;2022-08-21T01:28:23;14.70;;;5.80;;
5263;SDS011;2654;47.958;13.614;2022-08-21T01:30:51;13.37;;;6.40;;
5263;SDS011;2654;47.958;13.614;2022-08-21T01:33:20;8.43;;;5.00;;
5263;SDS011;2654;47.958;13.614;2022-08-21T01:35:50;7.47;;;5.90;;
5263;SDS011;2654;47.958;13.614;2022-08-21T01:38:19;5.37;;;4.50;;
5263;SDS011;2654;47.958;13.614;2022-08-21T01:40:47;5.53;;;4.40;;
5263;SDS011;2654;47.958;13.614;2022-08-21T01:43:14;3.93;;;3.53;;
5263;SDS011;2654;47.958;13.614;2022-08-21T01:45:41;4.13;;;3.73;;
5263;SDS011;2654;47.958;13.614;2022-08-21T01:48:09;6.00;;;4.87;;
5263;SDS011;2654;47.958;13.614;2022-08-21T01:50:36;10.37;;;5.47;;
5263;SDS011;2654;47.958;13.614;2022-08-21T01:53:05;14.10;;;9.70;;
5263;SDS011;2654;47.958;13.614;2022-08-21T01:55:33;22.53;;;15.10;;
5263;SDS011;2654;47.958;13.614;2022-08-21T01:58:00;25.67;;;18.67;;
5263;SDS011;2654;47.958;13.614;2022-08-21T02:00:28;9.53;;;7.90;;
5263;SDS011;2654;47.958;13.614;2022-08-21T02:02:55;5.60;;;4.73;;
5263;SDS011;2654;47.958;13.614;2022-08-21T02:05:23;4.30;;;3.90;;
5263;SDS011;2654;47.958;13.614;2022-08-21T02:07:51;4.40;;;3.30;;
5263;SDS011;2654;47.958;13.614;2022-08-21T02:10:22;4.00;;;3.70;;
5263;SDS011;2654;47.958;13.614;2022-08-21T02:12:51;68.47;;;36.63;;
5263;SDS011;2654;47.958;13.614;2022-08-21T02:15:19;74.03;;;35.90;;
5263;SDS011;2654;47.958;13.614;2022-08-21T02:17:48;87.27;;;47.13;;
5263;SDS011;2654;47.958;13.614;2022-08-21T02:20:20;73.47;;;43.97;;
5263;SDS011;2654;47.958;13.614;2022-08-21T02:22:49;54.37;;;35.80;;
5263;SDS011;2654;47.958;13.614;2022-08-21T02:25:16;26.70;;;17.10;;
5263;SDS011;2654;47.958;13.614;2022-08-21T02:27:47;17.30;;;13.83;;
5263;SDS011;2654;47.958;13.614;2022-08-21T02:30:16;14.37;;;9.33;;
5263;SDS011;2654;47.958;13.614;2022-08-21T02:32:45;12.60;;;5.50;;
5263;SDS011;2654;47.958;13.614;2022-08-21T02:35:13;5.07;;;3.87;;
5263;SDS011;2654;47.958;13.614;2022-08-21T02:37:44;6.20;;;3.60;;
5263;SDS011;2654;47.958;13.614;2022-08-21T02:40:14;3.50;;;3.20;;
5263;SDS011;2654;47.958;13.614;2022-08-21T02:42:43;3.43;;;3.13;;
5263;SDS011;2654;47.958;13.614;2022-08-21T02:45:13;3.30;;;3.00;;
5263;SDS011;2654;47.958;13.614;2022-08-21T02:47:46;3.80;;;3.10;;
5263;SDS011;2654;47.958;13.614;2022-08-21T02:50:16;3.57;;;3.27;;
5263;SDS011;2654;47.958;13.614;2022-08-21T02:52:46;3.23;;;2.93;;
5263;SDS011;2654;47.958;13.614;2022-08-21T02:55:14;3.40;;;3.10;;
5263;SDS011;2654;47.958;13.614;2022-08-21T02:57:42;5.03;;;3.10;;
5263;SDS011;2654;47.958;13.614;2022-08-21T03:00:10;4.00;;;3.40;;
5263;SDS011;2654;47.958;13.614;2022-08-21T03:02:40;3.00;;;2.80;;
5263;SDS011;2654;47.958;13.614;2022-08-21T03:05:08;7.23;;;3.20;;
5263;SDS011;2654;47.958;13.614;2022-08-21T03:07:36;3.30;;;3.00;;
5263;SDS011;2654;47.958;13.614;2022-08-21T03:10:05;5.90;;;3.40;;
5263;SDS011;2654;47.958;13.614;2022-08-21T03:12:33;5.63;;;3.90;;
5263;SDS011;2654;47.958;13.614;2022-08-21T03:15:01;3.63;;;3.33;;
5263;SDS011;2654;47.958;13.614;2022-08-21T03:17:30;5.63;;;3.57;;
5263;SDS011;2654;47.958;13.614;2022-08-21T03:19:58;4.30;;;3.00;;
5263;SDS011;2654;47.958;13.614;2022-08-21T03:22:26;3.70;;;3.37;;
5263;SDS011;2654;47.958;13.614;2022-08-21T03:24:54;3.90;;;3.50;;
5263;SDS011;2654;47.958;13.614;2022-08-21T03:27:22;5.73;;;3.33;;
5263;SDS011;2654;47.958;13.614;2022-08-21T03:29:51;4.57;;;3.50;;
5263;SDS011;2654;47.958;13.614;2022-08-21T03:32:19;5.30;;;3.30;;
5263;SDS011;2654;47.958;13.614;2022-08-21T03:34:48;4.20;;;3.60;;
5263;SDS011;2654;47.958;13.614;2022-08-21T03:37:16;5.03;;;3.23;;
5263;SDS011;2654;47.958;13.614;2022-08-21T03:39:43;5.37;;;3.93;;
5263;SDS011;2654;47.958;13.614;2022-08-21T03:42:11;5.57;;;4.33;;
5263;SDS011;2654;47.958;13.614;2022-08-21T03:44:38;4.83;;;4.10;;
5263;SDS011;2654;47.958;13.614;2022-08-21T03:47:06;4.90;;;3.73;;
5263;SDS011;2654;47.958;13.614;2022-08-21T03:49:34;4.80;;;4.00;;
5263;SDS011;2654;47.958;13.614;2022-08-21T03:52:03;4.70;;;4.23;;
5263;SDS011;2654;47.958;13.614;2022-08-21T03:54:31;6.10;;;4.07;;
5263;SDS011;2654;47.958;13.614;2022-08-21T03:56:59;4.60;;;3.80;;
5263;SDS011;2654;47.958;13.614;2022-08-21T03:59:27;7.80;;;4.30;;
5263;SDS011;2654;47.958;13.614;2022-08-21T04:01:55;8.90;;;3.60;;
5263;SDS011;2654;47.958;13.614;2022-08-21T04:04:26;9.30;;;4.40;;
5263;SDS011;2654;47.958;13.614;2022-08-21T04:06:54;6.13;;;3.90;;
5263;SDS011;2654;47.958;13.614;2022-08-21T04:09:24;10.23;;;4.13;;
5263;SDS011;2654;47.958;13.614;2022-08-21T04:11:52;7.07;;;3.73;;
5263;SDS011;2654;47.958;13.614;2022-08-21T04:14:19;5.77;;;3.63;;
5263;SDS011;2654;47.958;13.614;2022-08-21T04:16:47;3.93;;;3.33;;
5263;SDS011;2654;47.958;13.614;2022-08-21T04:19:15;5.10;;;3.47;;
5263;SDS011;2654;47.958;13.614;2022-08-21T04:21:42;4.00;;;2.80;;
5263;SDS011;2654;47.958;13.614;2022-08-21T04:24:10;4.10;;;3.47;;
5263;SDS011;2654;47.958;13.614;2022-08-21T04:26:39;3.70;;;3.23;;
5263;SDS011;2654;47.958;13.614;2022-08-21T04:29:06;5.23;;;3.50;;
5263;SDS011;2654;47.958;13.614;2022-08-21T04:31:34;3.73;;;3.33;;
5263;SDS011;2654;47.958;13.614;2022-08-21T04:34:03;6.13;;;4.07;;
5263;SDS011;2654;47.958;13.614;2022-08-21T04:36:31;4.93;;;3.90;;
5263;SDS011;2654;47.958;13.614;2022-08-21T04:38:58;5.27;;;4.40;;
5263;SDS011;2654;47.958;13.614;2022-08-21T04:41:27;6.60;;;5.10;;
5263;SDS011;2654;47.958;13.614;2022-08-21T04:43:56;8.17;;;7.30;;
5263;SDS011;2654;47.958;13.614;2022-08-21T04:46:24;13.70;;;9.60;;
5263;SDS011;2654;47.958;13.614;2022-08-21T04:48:52;15.53;;;11.73;;
5263;SDS011;2654;47.958;13.614;2022-08-21T04:51:21;22.90;;;13.63;;
5263;SDS011;2654;47.958;13.614;2022-08-21T04:53:52;19.03;;;14.07;;
5263;SDS011;2654;47.958;13.614;2022-08-21T04:56:24;23.87;;;14.97;;
5263;SDS011;2654;47.958;13.614;2022-08-21T04:58:58;22.23;;;16.13;;
5263;SDS011;2654;47.958;13.614;2022-08-21T05:01:37;23.93;;;16.20;;
5263;SDS011;2654;47.958;13.614;2022-08-21T05:04:07;22.60;;;15.30;;
5263;SDS011;2654;47.958;13.614;2022-08-21T05:06:36;23.30;;;14.70;;
5263;SDS011;2654;47.958;13.614;2022-08-21T05:09:06;18.10;;;13.40;;
5263;SDS011;2654;47.958;13.614;2022-08-21T05:11:34;19.60;;;14.40;;
5263;SDS011;2654;47.958;13.614;2022-08-21T05:14:04;16.73;;;12.80;;
5263;SDS011;2654;47.958;13.614;2022-08-21T05:16:31;16.33;;;11.80;;
5263;SDS011;2654;47.958;13.614;2022-08-21T05:18:59;15.03;;;10.50;;
5263;SDS011;2654;47.958;13.614;2022-08-21T05:21:26;13.70;;;10.07;;
5263;SDS011;2654;47.958;13.614;2022-08-21T05:23:53;22.13;;;9.80;;
5263;SDS011;2654;47.958;13.614;2022-08-21T05:26:21;11.73;;;9.57;;
5263;SDS011;2654;47.958;13.614;2022-08-21T05:28:48;12.87;;;8.60;;
5263;SDS011;2654;47.958;13.614;2022-08-21T05:31:18;12.50;;;9.07;;
5263;SDS011;2654;47.958;13.614;2022-08-21T05:33:46;12.80;;;8.83;;
5263;SDS011;2654;47.958;13.614;2022-08-21T05:36:13;10.13;;;8.40;;
5263;SDS011;2654;47.958;13.614;2022-08-21T05:38:41;11.93;;;7.90;;
5263;SDS011;2654;47.958;13.614;2022-08-21T05:41:08;13.27;;;7.70;;
5263;SDS011;2654;47.958;13.614;2022-08-21T05:43:36;10.67;;;7.83;;
5263;SDS011;2654;47.958;13.614;2022-08-21T05:46:03;14.50;;;9.10;;
5263;SDS011;2654;47.958;13.614;2022-08-21T05:48:33;8.83;;;7.83;;
5263;SDS011;2654;47.958;13.614;2022-08-21T05:51:04;9.00;;;7.63;;
5263;SDS011;2654;47.958;13.614;2022-08-21T05:53:32;10.40;;;7.70;;
5263;SDS011;2654;47.958;13.614;2022-08-21T05:56:00;9.20;;;7.60;;
5263;SDS011;2654;47.958;13.614;2022-08-21T05:58:29;9.27;;;7.00;;
5263;SDS011;2654;47.958;13.614;2022-08-21T06:00:58;10.00;;;7.50;;
5263;SDS011;2654;47.958;13.614;2022-08-21T06:03:27;8.70;;;7.50;;
5263;SDS011;2654;47.958;13.614;2022-08-21T06:05:58;9.43;;;7.43;;
5263;SDS011;2654;47.958;13.614;2022-08-21T06:08:25;11.10;;;8.20;;
5263;SDS011;2654;47.958;13.614;2022-08-21T06:10:53;10.63;;;7.70;;
5263;SDS011;2654;47.958;13.614;2022-08-21T06:13:22;9.17;;;7.40;;
5263;SDS011;2654;47.958;13.614;2022-08-21T06:15:59;8.30;;;6.87;;
5263;SDS011;2654;47.958;13.614;2022-08-21T06:18:28;9.73;;;6.80;;
5263;SDS011;2654;47.958;13.614;2022-08-21T06:20:55;7.97;;;6.53;;
5263;SDS011;2654;47.958;13.614;2022-08-21T06:23:24;7.77;;;6.10;;
5263;SDS011;2654;47.958;13.614;2022-08-21T06:25:52;8.50;;;6.67;;
5263;SDS011;2654;47.958;13.614;2022-08-21T06:28:19;8.83;;;6.00;;
5263;SDS011;2654;47.958;13.614;2022-08-21T06:30:47;25.27;;;6.27;;
5263;SDS011;2654;47.958;13.614;2022-08-21T06:33:14;10.77;;;6.77;;
5263;SDS011;2654;47.958;13.614;2022-08-21T06:35:42;8.17;;;6.40;;
5263;SDS011;2654;47.958;13.614;2022-08-21T06:38:10;8.03;;;5.27;;
5263;SDS011;2654;47.958;13.614;2022-08-21T06:40:38;8.30;;;6.00;;
5263;SDS011;2654;47.958;13.614;2022-08-21T06:43:07;10.93;;;6.63;;
5263;SDS011;2654;47.958;13.614;2022-08-21T06:45:36;6.90;;;5.40;;
5263;SDS011;2654;47.958;13.614;2022-08-21T06:48:04;6.63;;;5.70;;
5263;SDS011;2654;47.958;13.614;2022-08-21T06:50:33;8.70;;;5.37;;
5263;SDS011;2654;47.958;13.614;2022-08-21T06:53:01;7.00;;;5.20;;
5263;SDS011;2654;47.958;13.614;2022-08-21T06:55:31;8.40;;;5.67;;
5263;SDS011;2654;47.958;13.614;2022-08-21T06:57:59;8.57;;;5.60;;
5263;SDS011;2654;47.958;13.614;2022-08-21T07:00:27;6.93;;;5.47;;
5263;SDS011;2654;47.958;13.614;2022-08-21T07:02:55;8.57;;;5.53;;
5263;SDS011;2654;47.958;13.614;2022-08-21T07:05:24;9.07;;;5.17;;
5263;SDS011;2654;47.958;13.614;2022-08-21T07:07:53;7.60;;;5.23;;
5263;SDS011;2654;47.958;13.614;2022-08-21T07:10:20;6.03;;;5.13;;
5263;SDS011;2654;47.958;13.614;2022-08-21T07:12:49;6.07;;;5.00;;
5263;SDS011;2654;47.958;13.614;2022-08-21T07:15:17;7.07;;;4.83;;
5263;SDS011;2654;47.958;13.614;2022-08-21T07:17:45;6.00;;;5.00;;
5263;SDS011;2654;47.958;13.614;2022-08-21T07:20:12;7.17;;;5.03;;
5263;SDS011;2654;47.958;13.614;2022-08-21T07:22:39;15.37;;;5.80;;
5263;SDS011;2654;47.958;13.614;2022-08-21T07:25:07;7.30;;;4.97;;
5263;SDS011;2654;47.958;13.614;2022-08-21T07:27:35;7.20;;;5.17;;
5263;SDS011;2654;47.958;13.614;2022-08-21T07:30:05;6.70;;;5.50;;
5263;SDS011;2654;47.958;13.614;2022-08-21T07:32:33;10.20;;;5.60;;
5263;SDS011;2654;47.958;13.614;2022-08-21T07:35:01;12.40;;;5.80;;
5263;SDS011;2654;47.958;13.614;2022-08-21T07:37:29;6.23;;;5.13;;
5263;SDS011;2654;47.958;13.614;2022-08-21T07:39:56;9.90;;;5.67;;
5263;SDS011;2654;47.958;13.614;2022-08-21T07:42:24;6.43;;;4.87;;
5263;SDS011;2654;47.958;13.614;2022-08-21T07:44:51;6.40;;;5.23;;
5263;SDS011;2654;47.958;13.614;2022-08-21T07:47:22;8.60;;;5.10;;
5263;SDS011;2654;47.958;13.614;2022-08-21T07:49:50;14.43;;;5.63;;
5263;SDS011;2654;47.958;13.614;2022-08-21T07:52:17;7.47;;;5.20;;
5263;SDS011;2654;47.958;13.614;2022-08-21T07:54:45;9.17;;;5.60;;
5263;SDS011;2654;47.958;13.614;2022-08-21T07:57:12;9.93;;;5.07;;
5263;SDS011;2654;47.958;13.614;2022-08-21T07:59:39;7.00;;;4.97;;
5263;SDS011;2654;47.958;13.614;2022-08-21T08:02:07;7.10;;;5.67;;
5263;SDS011;2654;47.958;13.614;2022-08-21T08:04:36;9.37;;;5.20;;
5263;SDS011;2654;47.958;13.614;2022-08-21T08:07:03;9.57;;;5.30;;
5263;SDS011;2654;47.958;13.614;2022-08-21T08:09:31;9.97;;;4.83;;
5263;SDS011;2654;47.958;13.614;2022-08-21T08:11:58;13.00;;;5.70;;
5263;SDS011;2654;47.958;13.614;2022-08-21T08:14:26;7.60;;;5.27;;
5263;SDS011;2654;47.958;13.614;2022-08-21T08:16:53;7.53;;;5.40;;
5263;SDS011;2654;47.958;13.614;2022-08-21T08:19:21;8.70;;;5.40;;
5263;SDS011;2654;47.958;13.614;2022-08-21T08:21:50;7.43;;;6.20;;
5263;SDS011;2654;47.958;13.614;2022-08-21T08:24:17;10.53;;;6.07;;
5263;SDS011;2654;47.958;13.614;2022-08-21T08:26:45;9.27;;;5.83;;
5263;SDS011;2654;47.958;13.614;2022-08-21T08:29:12;6.40;;;5.53;;
5263;SDS011;2654;47.958;13.614;2022-08-21T08:31:40;9.23;;;5.90;;
5263;SDS011;2654;47.958;13.614;2022-08-21T08:34:08;6.40;;;5.30;;
5263;SDS011;2654;47.958;13.614;2022-08-21T08:36:37;6.00;;;5.40;;
5263;SDS011;2654;47.958;13.614;2022-08-21T08:39:06;6.30;;;5.50;;
5263;SDS011;2654;47.958;13.614;2022-08-21T08:41:33;6.27;;;4.97;;
5263;SDS011;2654;47.958;13.614;2022-08-21T08:44:04;5.43;;;4.93;;
5263;SDS011;2654;47.958;13.614;2022-08-21T08:46:34;8.50;;;5.40;;
5263;SDS011;2654;47.958;13.614;2022-08-21T08:49:09;7.10;;;5.33;;
5263;SDS011;2654;47.958;13.614;2022-08-21T08:51:43;8.10;;;5.80;;
5263;SDS011;2654;47.958;13.614;2022-08-21T08:54:16;6.50;;;5.53;;
5263;SDS011;2654;47.958;13.614;2022-08-21T08:56:49;10.67;;;5.60;;
5263;SDS011;2654;47.958;13.614;2022-08-21T08:59:20;8.83;;;5.53;;
5263;SDS011;2654;47.958;13.614;2022-08-21T09:01:53;6.77;;;5.00;;
5263;SDS011;2654;47.958;13.614;2022-08-21T09:04:21;7.63;;;5.90;;
5263;SDS011;2654;47.958;13.614;2022-08-21T09:06:56;6.33;;;5.60;;
5263;SDS011;2654;47.958;13.614;2022-08-21T09:09:37;6.93;;;5.70;;
5263;SDS011;2654;47.958;13.614;2022-08-21T09:12:28;6.60;;;5.47;;
5263;SDS011;2654;47.958;13.614;2022-08-21T09:15:06;11.40;;;6.10;;
5263;SDS011;2654;47.958;13.614;2022-08-21T09:17:46;8.10;;;5.83;;
5263;SDS011;2654;47.958;13.614;2022-08-21T09:20:27;11.50;;;6.20;;
5263;SDS011;2654;47.958;13.614;2022-08-21T09:23:06;9.90;;;6.00;;
5263;SDS011;2654;47.958;13.614;2022-08-21T09:25:49;11.33;;;6.30;;
5263;SDS011;2654;47.958;13.614;2022-08-21T09:28:25;8.33;;;5.40;;
5263;SDS011;2654;47.958;13.614;2022-08-21T09:30:54;7.63;;;5.73;;
5263;SDS011;2654;47.958;13.614;2022-08-21T09:33:23;11.60;;;6.43;;
5263;SDS011;2654;47.958;13.614;2022-08-21T09:35:51;11.47;;;5.80;;
5263;SDS011;2654;47.958;13.614;2022-08-21T09:38:24;7.27;;;5.40;;
5263;SDS011;2654;47.958;13.614;2022-08-21T09:40:57;24.47;;;8.57;;
5263;SDS011;2654;47.958;13.614;2022-08-21T09:43:27;6.97;;;5.60;;
5263;SDS011;2654;47.958;13.614;2022-08-21T09:46:03;9.50;;;6.40;;
5263;SDS011;2654;47.958;13.614;2022-08-21T09:48:38;7.70;;;5.73;;
5263;SDS011;2654;47.958;13.614;2022-08-21T09:51:09;7.07;;;5.80;;
5263;SDS011;2654;47.958;13.614;2022-08-21T09:53:39;7.70;;;6.13;;
5263;SDS011;2654;47.958;13.614;2022-08-21T09:59:19;10.43;;;5.20;;
5263;SDS011;2654;47.958;13.614;2022-08-21T10:01:55;7.67;;;5.90;;
5263;SDS011;2654;47.958;13.614;2022-08-21T10:04:27;7.83;;;6.00;;
5263;SDS011;2654;47.958;13.614;2022-08-21T10:07:05;14.77;;;6.03;;
5263;SDS011;2654;47.958;13.614;2022-08-21T10:09:34;8.43;;;5.67;;
5263;SDS011;2654;47.958;13.614;2022-08-21T10:12:08;7.30;;;6.10;;
5263;SDS011;2654;47.958;13.614;2022-08-21T10:14:44;7.90;;;5.93;;
5263;SDS011;2654;47.958;13.614;2022-08-21T10:17:17;10.73;;;5.73;;
5263;SDS011;2654;47.958;13.614;2022-08-21T10:19:53;10.83;;;7.33;;
5263;SDS011;2654;47.958;13.614;2022-08-21T10:22:30;8.03;;;6.83;;
5263;SDS011;2654;47.958;13.614;2022-08-21T10:25:06;7.67;;;6.87;;
5263;SDS011;2654;47.958;13.614;2022-08-21T10:27:43;11.13;;;7.43;;
5263;SDS011;2654;47.958;13.614;2022-08-21T10:30:19;7.37;;;5.90;;
5263;SDS011;2654;47.958;13.614;2022-08-21T10:33:10;9.70;;;6.40;;
5263;SDS011;2654;47.958;13.614;2022-08-21T10:35:49;9.20;;;6.67;;
5263;SDS011;2654;47.958;13.614;2022-08-21T10:38:34;7.87;;;6.40;;
5263;SDS011;2654;47.958;13.614;2022-08-21T10:41:18;9.17;;;6.27;;
5263;SDS011;2654;47.958;13.614;2022-08-21T10:43:58;7.40;;;5.90;;
5263;SDS011;2654;47.958;13.614;2022-08-21T10:46:37;12.20;;;6.40;;
5263;SDS011;2654;47.958;13.614;2022-08-21T10:49:13;9.47;;;6.73;;
5263;SDS011;2654;47.958;13.614;2022-08-21T10:51:53;8.20;;;6.67;;
5263;SDS011;2654;47.958;13.614;2022-08-21T10:54:37;11.43;;;7.17;;
5263;SDS011;2654;47.958;13.614;2022-08-21T10:57:12;9.57;;;6.73;;
5263;SDS011;2654;47.958;13.614;2022-08-21T10:59:51;7.60;;;6.73;;
5263;SDS011;2654;47.958;13.614;2022-08-21T11:02:25;8.33;;;7.00;;
5263;SDS011;2654;47.958;13.614;2022-08-21T11:04:57;12.27;;;6.73;;
5263;SDS011;2654;47.958;13.614;2022-08-21T11:07:30;16.90;;;7.07;;
5263;SDS011;2654;47.958;13.614;2022-08-21T11:10:01;11.47;;;7.10;;
5263;SDS011;2654;47.958;13.614;2022-08-21T11:12:35;9.60;;;7.07;;
5263;SDS011;2654;47.958;13.614;2022-08-21T11:15:26;9.00;;;7.33;;
5263;SDS011;2654;47.958;13.614;2022-08-21T11:18:01;8.50;;;5.63;;
5263;SDS011;2654;47.958;13.614;2022-08-21T11:20:38;10.93;;;7.07;;
5263;SDS011;2654;47.958;13.614;2022-08-21T11:23:11;8.60;;;6.13;;
5263;SDS011;2654;47.958;13.614;2022-08-21T11:25:44;9.77;;;6.80;;
5263;SDS011;2654;47.958;13.614;2022-08-21T11:28:18;9.77;;;6.90;;
5263;SDS011;2654;47.958;13.614;2022-08-21T11:30:55;11.50;;;7.67;;
5263;SDS011;2654;47.958;13.614;2022-08-21T11:33:31;12.20;;;6.87;;
5263;SDS011;2654;47.958;13.614;2022-08-21T11:36:11;7.57;;;6.73;;
5263;SDS011;2654;47.958;13.614;2022-08-21T11:38:48;11.13;;;6.37;;
5263;SDS011;2654;47.958;13.614;2022-08-21T11:41:23;12.70;;;7.03;;
5263;SDS011;2654;47.958;13.614;2022-08-21T11:43:58;6.83;;;5.90;;
5263;SDS011;2654;47.958;13.614;2022-08-21T11:46:38;6.60;;;5.77;;
5263;SDS011;2654;47.958;13.614;2022-08-21T11:49:17;9.33;;;7.07;;
5263;SDS011;2654;47.958;13.614;2022-08-21T11:52:03;11.50;;;6.90;;
5263;SDS011;2654;47.958;13.614;2022-08-21T11:54:38;8.43;;;6.20;;
5263;SDS011;2654;47.958;13.614;2022-08-21T11:57:13;7.63;;;6.20;;
5263;SDS011;2654;47.958;13.614;2022-08-21T11:59:45;9.33;;;6.43;;
5263;SDS011;2654;47.958;13.614;2022-08-21T12:02:19;8.00;;;6.13;;
5263;SDS011;2654;47.958;13.614;2022-08-21T12:04:51;6.83;;;5.60;;
5263;SDS011;2654;47.958;13.614;2022-08-21T12:07:29;9.17;;;5.50;;
5263;SDS011;2654;47.958;13.614;2022-08-21T12:09:59;9.30;;;5.00;;
5263;SDS011;2654;47.958;13.614;2022-08-21T12:12:27;5.40;;;4.77;;
5263;SDS011;2654;47.958;13.614;2022-08-21T12:15:23;13.83;;;5.10;;
5263;SDS011;2654;47.958;13.614;2022-08-21T12:17:58;5.50;;;4.90;;
5263;SDS011;2654;47.958;13.614;2022-08-21T12:20:35;6.20;;;4.80;;
5263;SDS011;2654;47.958;13.614;2022-08-21T12:23:18;6.33;;;4.90;;
5263;SDS011;2654;47.958;13.614;2022-08-21T12:26:09;7.37;;;4.70;;
5263;SDS011;2654;47.958;13.614;2022-08-21T12:28:45;9.23;;;4.27;;
5263;SDS011;2654;47.958;13.614;2022-08-21T12:31:20;5.87;;;4.57;;
5263;SDS011;2654;47.958;13.614;2022-08-21T12:33:53;4.83;;;4.43;;
5263;SDS011;2654;47.958;13.614;2022-08-21T12:36:26;8.43;;;5.17;;
5263;SDS011;2654;47.958;13.614;2022-08-21T12:39:15;7.53;;;5.30;;
5263;SDS011;2654;47.958;13.614;2022-08-21T12:41:48;5.27;;;4.77;;
5263;SDS011;2654;47.958;13.614;2022-08-21T12:44:21;4.30;;;3.90;;
5263;SDS011;2654;47.958;13.614;2022-08-21T12:46:55;6.30;;;5.00;;
5263;SDS011;2654;47.958;13.614;2022-08-21T12:49:28;8.33;;;4.80;;
5263;SDS011;2654;47.958;13.614;2022-08-21T12:52:02;4.20;;;3.80;;
5263;SDS011;2654;47.958;13.614;2022-08-21T12:54:38;4.53;;;4.13;;
5263;SDS011;2654;47.958;13.614;2022-08-21T12:57:08;4.83;;;4.37;;
5263;SDS011;2654;47.958;13.614;2022-08-21T12:59:44;4.30;;;3.70;;
5263;SDS011;2654;47.958;13.614;2022-08-21T13:02:14;4.70;;;4.30;;
5263;SDS011;2654;47.958;13.614;2022-08-21T13:04:46;4.07;;;3.77;;
5263;SDS011;2654;47.958;13.614;2022-08-21T13:07:16;4.53;;;4.13;;
5263;SDS011;2654;47.958;13.614;2022-08-21T13:09:53;6.23;;;4.70;;
5263;SDS011;2654;47.958;13.614;2022-08-21T13:12:23;5.20;;;4.70;;
5263;SDS011;2654;47.958;13.614;2022-08-21T13:14:51;5.77;;;4.47;;
5263;SDS011;2654;47.958;13.614;2022-08-21T13:17:24;6.07;;;5.13;;
5263;SDS011;2654;47.958;13.614;2022-08-21T13:19:58;7.23;;;4.77;;
5263;SDS011;2654;47.958;13.614;2022-08-21T13:22:26;5.57;;;4.80;;
5263;SDS011;2654;47.958;13.614;2022-08-21T13:24:55;5.23;;;4.73;;
5263;SDS011;2654;47.958;13.614;2022-08-21T13:27:24;5.07;;;4.57;;
5263;SDS011;2654;47.958;13.614;2022-08-21T13:30:04;5.20;;;4.70;;
5263;SDS011;2654;47.958;13.614;2022-08-21T13:32:38;5.60;;;4.90;;
5263;SDS011;2654;47.958;13.614;2022-08-21T13:35:11;6.40;;;5.03;;
5263;SDS011;2654;47.958;13.614;2022-08-21T13:37:41;10.23;;;5.60;;
5263;SDS011;2654;47.958;13.614;2022-08-21T13:40:12;5.80;;;5.20;;
5263;SDS011;2654;47.958;13.614;2022-08-21T13:42:43;5.10;;;4.60;;
5263;SDS011;2654;47.958;13.614;2022-08-21T13:45:14;6.70;;;5.30;;
5263;SDS011;2654;47.958;13.614;2022-08-21T13:47:43;7.80;;;5.90;;
5263;SDS011;2654;47.958;13.614;2022-08-21T13:50:15;7.80;;;6.07;;
5263;SDS011;2654;47.958;13.614;2022-08-21T13:52:49;4.63;;;4.23;;
5263;SDS011;2654;47.958;13.614;2022-08-21T13:55:22;4.77;;;4.27;;
5263;SDS011;2654;47.958;13.614;2022-08-21T13:57:58;5.43;;;4.10;;
5263;SDS011;2654;47.958;13.614;2022-08-21T14:00:27;6.83;;;5.10;;
5263;SDS011;2654;47.958;13.614;2022-08-21T14:03:00;5.20;;;4.70;;
5263;SDS011;2654;47.958;13.614;2022-08-21T14:05:33;5.37;;;4.40;;
5263;SDS011;2654;47.958;13.614;2022-08-21T14:08:04;5.23;;;4.60;;
5263;SDS011;2654;47.958;13.614;2022-08-21T14:10:35;6.30;;;4.57;;
5263;SDS011;2654;47.958;13.614;2022-08-21T14:13:14;5.67;;;5.07;;
5263;SDS011;2654;47.958;13.614;2022-08-21T14:15:54;6.80;;;5.30;;
5263;SDS011;2654;47.958;13.614;2022-08-21T14:18:23;9.87;;;5.47;;
5263;SDS011;2654;47.958;13.614;2022-08-21T14:20:57;6.60;;;5.60;;
5263;SDS011;2654;47.958;13.614;2022-08-21T14:23:31;6.97;;;5.80;;
5263;SDS011;2654;47.958;13.614;2022-08-21T14:25:59;5.90;;;5.20;;
5263;SDS011;2654;47.958;13.614;2022-08-21T14:28:28;11.17;;;5.60;;
5263;SDS011;2654;47.958;13.614;2022-08-21T14:30:59;7.70;;;5.20;;
5263;SDS011;2654;47.958;13.614;2022-08-21T14:33:39;7.00;;;5.00;;
5263;SDS011;2654;47.958;13.614;2022-08-21T14:36:08;6.53;;;5.43;;
5263;SDS011;2654;47.958;13.614;2022-08-21T14:38:36;5.93;;;5.33;;
5263;SDS011;2654;47.958;13.614;2022-08-21T14:41:09;6.37;;;5.30;;
5263;SDS011;2654;47.958;13.614;2022-08-21T14:43:42;5.80;;;5.20;;
5263;SDS011;2654;47.958;13.614;2022-08-21T14:46:10;6.60;;;5.00;;
5263;SDS011;2654;47.958;13.614;2022-08-21T14:48:39;7.13;;;5.40;;
5263;SDS011;2654;47.958;13.614;2022-08-21T14:51:06;5.70;;;4.53;;
5263;SDS011;2654;47.958;13.614;2022-08-21T14:53:35;5.57;;;4.60;;
5263;SDS011;2654;47.958;13.614;2022-08-21T14:56:03;4.93;;;4.43;;
5263;SDS011;2654;47.958;13.614;2022-08-21T14:58:30;7.50;;;5.20;;
5263;SDS011;2654;47.958;13.614;2022-08-21T15:00:59;6.30;;;5.40;;
5263;SDS011;2654;47.958;13.614;2022-08-21T15:03:28;7.37;;;4.97;;
5263;SDS011;2654;47.958;13.614;2022-08-21T15:05:57;5.57;;;5.03;;
5263;SDS011;2654;47.958;13.614;2022-08-21T15:08:26;6.93;;;5.43;;
5263;SDS011;2654;47.958;13.614;2022-08-21T15:10:54;6.40;;;5.30;;
5263;SDS011;2654;47.958;13.614;2022-08-21T15:13:22;5.80;;;5.20;;
5263;SDS011;2654;47.958;13.614;2022-08-21T15:15:50;10.80;;;5.13;;
5263;SDS011;2654;47.958;13.614;2022-08-21T15:18:19;5.67;;;5.07;;
5263;SDS011;2654;47.958;13.614;2022-08-21T15:20:46;14.10;;;6.70;;
5263;SDS011;2654;47.958;13.614;2022-08-21T15:23:14;15.30;;;7.23;;